NOAA Web Site Link Tides and Currents Home Page Transparent placeholder image

PORTS® Data Listing: 8537121 Ship John Shoal, NJ

CO-OPS RAW PORTS DATA

************************      PRELIMINARY DATA      ************************** 

     THIS RAW DATA HAS NOT BEEN SUBJECT TO THE NATIONAL OCEAN SERVICE'S        
     QUALITY CONTROL OR QUALITY ASSURANCE PROCEDURES AND DOES NOT MEET         
     THE CRITERIA AND STANDARDS OF OFFICIAL NATIONAL OCEAN SERVICE             
     DATA.  IT IS RELEASED FOR LIMITED PUBLIC USE AS PRELIMINARY DATA TO       
     BE USED ONLY WITH APPROPRIATE CAUTION.                                    

************************      PRELIMINARY DATA      ************************** 


       CD   -   Calendar date
       T    -   Time
       TZ   -   Timezone
       PW   -   Predicted water level (feet above MLLW)
       OW   -   Observed water level (feet above MLLW)
       WS   -   Wind speed (knots)
       WD   -   Wind direction (degrees true)
       WG   -   Wind gust (knots)
       AT   -   Air temperature (degrees farenheit)
       WT   -   Water temperature (degrees farenheit)
       AP   -   Air pressure (millibars)
       SA   -   Salinty (PSU - Practical Salinity Units)
       SG   -   Specific gravity
       RH   -   Relative humidity
       AG   -   Air gap (feet)
       VI   -   Visibility (nautical miles)

       ** NOTE **
       A variable that has its data fields filled with "9"s, indicates that
       data was not collected for that sample period.
       **********


STATION NAME: Ship John Shoal (8537121)
****************************************************************************************************
    CD       T    TZ    PW     OW    WS   WD   WG    AT    WT    AP    SA    SG     RH    AG   VI
****************************************************************************************************
2018/08/13 15:30 EDT    3.28   3.46    4  326    6  80.8  83.5 1012.7  9.4  1.004 -99.9 -99.99 -9.99
2018/08/13 15:36 EDT    3.13   3.31    4  327    5  81.0  83.3 1012.7  9.6  1.004 -99.9 -99.99 -9.99
2018/08/13 15:42 EDT    2.98   3.15    4  329    6  81.1  83.1 1012.7  9.8  1.004 -99.9 -99.99 -9.99
2018/08/13 15:48 EDT    2.83   3.01    3  336    4  81.5  82.9 1012.5  9.9  1.004 -99.9 -99.99 -9.99
2018/08/13 15:54 EDT    2.68   2.87    3  336    4  81.3  83.1 1012.6  9.8  1.004 -99.9 -99.99 -9.99
2018/08/13 16:00 EDT    2.53   2.70    3  347    4  81.5  83.1 1012.5  9.8  1.004 -99.9 -99.99 -9.99
2018/08/13 16:06 EDT    2.39   2.59    3  333    4  81.7  83.1 1012.4  9.9  1.004 -99.9 -99.99 -9.99
2018/08/13 16:12 EDT    2.24   2.43    3  330    4  82.0  83.1 1012.5  9.9  1.004 -99.9 -99.99 -9.99
2018/08/13 16:18 EDT    2.09   2.31    2  358    3  82.2  83.1 1012.5  9.9  1.004 -99.9 -99.99 -9.99
2018/08/13 16:24 EDT    1.95   2.16    2   11    2  82.6  82.9 1012.4 10.1  1.005 -99.9 -99.99 -9.99
2018/08/13 16:30 EDT    1.81   2.03    2  358    3  82.8  82.9 1012.4  9.9  1.004 -99.9 -99.99 -9.99
2018/08/13 16:36 EDT    1.67   1.92    3  355    3  82.2  82.9 1012.4  9.8  1.004 -99.9 -99.99 -9.99
2018/08/13 16:42 EDT    1.53   1.77    4  335    4  81.7  82.8 1012.3  9.8  1.004 -99.9 -99.99 -9.99
2018/08/13 16:48 EDT    1.39   1.67    4  333    4  81.7  82.8 1012.3  9.7  1.004 -99.9 -99.99 -9.99
2018/08/13 16:54 EDT    1.26   1.55    3  353    4  82.0  82.8 1012.2  9.7  1.004 -99.9 -99.99 -9.99
2018/08/13 17:00 EDT    1.13   1.47    3  347    4  81.9  82.8 1012.2  9.6  1.004 -99.9 -99.99 -9.99
2018/08/13 17:06 EDT    1.00   1.26    3  357    3  81.7  82.8 1012.2  9.5  1.004 -99.9 -99.99 -9.99
2018/08/13 17:12 EDT    0.87   1.21    2    8    3  81.7  82.8 1012.1  9.4  1.004 -99.9 -99.99 -9.99
2018/08/13 17:18 EDT    0.75   1.12    2    3    2  82.2  82.8 1012.1  9.3  1.004 -99.9 -99.99 -9.99
2018/08/13 17:24 EDT    0.63   1.01    2   18    2  82.4  82.8 1012.1  9.1  1.004 -99.9 -99.99 -9.99
2018/08/13 17:30 EDT    0.52   0.93    3   10    3  82.0  82.8 1012.0  9.1  1.004 -99.9 -99.99 -9.99
2018/08/13 17:36 EDT    0.41   0.84    3    6    3  82.2  82.9 1012.0  8.9  1.004 -99.9 -99.99 -9.99
2018/08/13 17:42 EDT    0.31   0.75    2  354    3  82.9  82.9 1012.1  8.8  1.004 -99.9 -99.99 -9.99
2018/08/13 17:48 EDT    0.21   0.66    1  110    3  84.0  82.9 1012.1  8.8  1.004 -99.9 -99.99 -9.99
2018/08/13 17:54 EDT    0.12   0.57    6  161    8  82.0  82.9 1012.1  8.8  1.004 -99.9 -99.99 -9.99
2018/08/13 18:00 EDT    0.04   0.51    6  158    9  82.4  82.9 1011.9  8.7  1.004 -99.9 -99.99 -9.99
2018/08/13 18:06 EDT   -0.03   0.38    9  168   10  81.9  82.9 1011.8  8.6  1.003 -99.9 -99.99 -9.99
2018/08/13 18:12 EDT   -0.09   0.36    9  156   12  81.9  82.9 1011.7  8.4  1.003 -99.9 -99.99 -9.99
2018/08/13 18:18 EDT   -0.14   0.29   10  160   11  81.7  82.9 1011.6  8.5  1.003 -99.9 -99.99 -9.99
2018/08/13 18:24 EDT   -0.19   0.23    9  159   11  81.3  82.9 1011.7  8.4  1.003 -99.9 -99.99 -9.99
2018/08/13 18:30 EDT   -0.22   0.14   10  164   11  81.1  83.1 1011.6  8.3  1.003 -99.9 -99.99 -9.99
2018/08/13 18:36 EDT   -0.24   0.04    9  152   10  81.3  83.1 1011.6  8.1  1.003 -99.9 -99.99 -9.99
2018/08/13 18:42 EDT   -0.25   0.03   10  154   10  81.3  83.1 1011.7  8.0  1.003 -99.9 -99.99 -9.99
2018/08/13 18:48 EDT   -0.25   0.03   10  158   11  81.0  83.1 1011.8  8.0  1.003 -99.9 -99.99 -9.99
2018/08/13 18:54 EDT   -0.23   0.03   10  164   11  80.8  83.1 1011.8  7.9  1.003 -99.9 -99.99 -9.99
2018/08/13 19:00 EDT   -0.20   0.03    9  157   10  81.0  83.1 1012.0  7.8  1.003 -99.9 -99.99 -9.99
2018/08/13 19:06 EDT   -0.16   0.02    9  170    9  80.6  83.1 1012.1  7.7  1.003 -99.9 -99.99 -9.99
2018/08/13 19:12 EDT   -0.11   0.08    8  175    9  80.4  83.1 1012.1  7.6  1.003 -99.9 -99.99 -9.99
2018/08/13 19:18 EDT   -0.04   0.13    8  174    9  80.6  83.1 1012.1  7.6  1.003 -99.9 -99.99 -9.99
2018/08/13 19:24 EDT    0.04   0.22   10  176   11  80.6  83.1 1012.2  7.7  1.003 -99.9 -99.99 -9.99
2018/08/13 19:30 EDT    0.13   0.36   10  184   11  80.4  83.1 1012.2  7.6  1.003 -99.9 -99.99 -9.99
2018/08/13 19:36 EDT    0.23   0.50   10  186   11  80.4  83.1 1012.2  7.4  1.003 -99.9 -99.99 -9.99
2018/08/13 19:42 EDT    0.34   0.69    9  189   11  80.4  83.1 1012.2  7.5  1.003 -99.9 -99.99 -9.99
2018/08/13 19:48 EDT    0.46   0.86   10  192   12  80.6  83.1 1012.3  7.1  1.002 -99.9 -99.99 -9.99
2018/08/13 19:54 EDT    0.60   1.05   10  189   13  80.4  83.3 1012.3  7.0  1.002 -99.9 -99.99 -9.99
2018/08/13 20:00 EDT    0.74   1.25   10  208   11  80.6  83.3 1012.3  7.0  1.002 -99.9 -99.99 -9.99
2018/08/13 20:06 EDT    0.89   1.43   12  207   14  80.2  83.1 1012.3  7.1  1.002 -99.9 -99.99 -9.99
2018/08/13 20:12 EDT    1.05   1.63   12  203   13  79.7  83.3 1012.3  6.9  1.002 -99.9 -99.99 -9.99
2018/08/13 20:18 EDT    1.22   1.82   13  202   14  79.5  83.3 1012.1  6.9  1.002 -99.9 -99.99 -9.99
2018/08/13 20:24 EDT    1.39   2.04   17  257   22  78.4  83.1 1012.4  6.9  1.002 -99.9 -99.99 -9.99
2018/08/13 20:30 EDT    1.57   2.22   15  267   21  77.9  83.1 1012.4  6.8  1.002 -99.9 -99.99 -9.99
2018/08/13 20:36 EDT    1.75   2.40   17  265   20  77.7  83.1 1012.5  6.8  1.002 -99.9 -99.99 -9.99
2018/08/13 20:42 EDT    1.94   2.61   13  264   17  77.2  83.3 1012.5  6.7  1.002 -99.9 -99.99 -9.99
2018/08/13 20:48 EDT    2.13   2.82    9  267   14  76.8  83.3 1012.6  6.7  1.002 -99.9 -99.99 -9.99
2018/08/13 20:54 EDT    2.32   3.00    5  273   11  76.6  83.3 1012.5  6.8  1.002 -99.9 -99.99 -9.99
2018/08/13 21:00 EDT    2.52   3.18    2  298    5  76.6  83.3 1012.4  6.9  1.002 -99.9 -99.99 -9.99
2018/08/13 21:06 EDT    2.71   3.38    3  295    4  76.8  83.1 1012.4  7.0  1.002 -99.9 -99.99 -9.99
2018/08/13 21:12 EDT    2.91   3.60    1  316    3  76.8  83.1 1012.4  7.2  1.002 -99.9 -99.99 -9.99
2018/08/13 21:18 EDT    3.11   3.78    4  253    5  77.2  83.1 1012.6  7.3  1.002 -99.9 -99.99 -9.99
2018/08/13 21:24 EDT    3.31   3.99    5  262    6  76.8  83.1 1012.7  7.4  1.003 -99.9 -99.99 -9.99
2018/08/13 21:30 EDT    3.50   4.22    6  242    7  76.5  83.1 1012.9  7.4  1.003 -99.9 -99.99 -9.99
2018/08/13 21:36 EDT    3.70   4.40    5  252    7  76.6  82.9 1013.0  7.3  1.003 -99.9 -99.99 -9.99
2018/08/13 21:42 EDT    3.89   4.61    6  265    7  76.3  82.9 1013.1  7.3  1.003 -99.9 -99.99 -9.99
2018/08/13 21:48 EDT    4.09   4.83    6  246    8  75.9  82.9 1013.2  7.3  1.003 -99.9 -99.99 -9.99
2018/08/13 21:54 EDT    4.28   5.03    4  234    6  75.7  82.9 1013.1  7.3  1.003 -99.9 -99.99 -9.99
2018/08/13 22:00 EDT    4.46   5.19    7  240    8  75.6  82.9 1013.2  7.5  1.003 -99.9 -99.99 -9.99
2018/08/13 22:06 EDT    4.65   5.41    7  242    8  75.6  83.1 1013.3  7.5  1.003 -99.9 -99.99 -9.99
2018/08/13 22:12 EDT    4.83   5.58    6  233    8  75.6  83.1 1013.2  7.6  1.003 -99.9 -99.99 -9.99
2018/08/13 22:18 EDT    5.01   5.74    5  253    7  75.9  82.9 1013.3  7.7  1.003 -99.9 -99.99 -9.99
2018/08/13 22:24 EDT    5.18   5.91    6  275    7  75.7  82.9 1013.3  7.7  1.003 -99.9 -99.99 -9.99
2018/08/13 22:30 EDT    5.35   6.06    8  293    9  75.9  83.1 1013.3  7.7  1.003 -99.9 -99.99 -9.99
2018/08/13 22:36 EDT    5.51   6.20    8  283   10  75.4  83.1 1013.3  7.7  1.003 -99.9 -99.99 -9.99
2018/08/13 22:42 EDT    5.67   6.36    7  269   10  74.8  83.1 1013.2  7.7  1.003 -99.9 -99.99 -9.99
2018/08/13 22:48 EDT    5.83   6.50    7  267   10  74.7  83.1 1013.2  7.7  1.003 -99.9 -99.99 -9.99
2018/08/13 22:54 EDT    5.98   6.63    8  248    9  74.7  82.9 1013.3  7.8  1.003 -99.9 -99.99 -9.99
2018/08/13 23:00 EDT    6.12   6.75    7  227    8  74.8  82.9 1013.2  7.9  1.003 -99.9 -99.99 -9.99
2018/08/13 23:06 EDT    6.26   6.87    7  235    9  74.7  82.9 1013.1  8.2  1.003 -99.9 -99.99 -9.99
2018/08/13 23:12 EDT    6.38   6.98    7  246    9  74.5  82.9 1013.1  8.5  1.003 -99.9 -99.99 -9.99
2018/08/13 23:18 EDT    6.51   7.07    7  250    9  74.3  82.9 1013.1  8.6  1.003 -99.9 -99.99 -9.99
2018/08/13 23:24 EDT    6.62   7.17    8  253    9  74.3  82.9 1013.0  8.8  1.004 -99.9 -99.99 -9.99
2018/08/13 23:30 EDT    6.73   7.26    6  270    8  74.1  82.8 1012.8  9.1  1.004 -99.9 -99.99 -9.99
2018/08/13 23:36 EDT    6.83   7.35    6  271    7  74.3  82.8 1012.6  9.2  1.004 -99.9 -99.99 -9.99
2018/08/13 23:42 EDT    6.92   7.42    6  274    7  74.5  82.8 1012.6  9.2  1.004 -99.9 -99.99 -9.99
2018/08/13 23:48 EDT    7.00   7.49    7  270    7  74.5  82.6 1012.7  9.3  1.004 -99.9 -99.99 -9.99
2018/08/13 23:54 EDT    7.07   7.55    6  246    8  74.3  82.6 1012.8  9.4  1.004 -99.9 -99.99 -9.99
2018/08/14 00:00 EDT    7.13   7.60    5  258    7  74.5  82.6 1012.7  9.4  1.004 -99.9 -99.99 -9.99
2018/08/14 00:06 EDT    7.19   7.66    5  235    6  74.7  82.6 1012.8  9.4  1.004 -99.9 -99.99 -9.99
2018/08/14 00:12 EDT    7.23   7.68    5  232    6  74.7  82.6 1012.8  9.4  1.004 -99.9 -99.99 -9.99
2018/08/14 00:18 EDT    7.27   7.71    5  250    6  74.8  82.6 1012.7  9.6  1.004 -99.9 -99.99 -9.99
2018/08/14 00:24 EDT    7.29   7.72    5  255    7  74.8  82.6 1012.7  9.7  1.004 -99.9 -99.99 -9.99
2018/08/14 00:30 EDT    7.31   7.72    6  239    7  74.7  82.4 1012.7  9.9  1.005 -99.9 -99.99 -9.99
2018/08/14 00:36 EDT    7.31   7.73    6  245    8  74.5  82.4 1012.6 10.0  1.005 -99.9 -99.99 -9.99
2018/08/14 00:42 EDT    7.31   7.72    8  226    9  74.5  82.4 1012.6 10.2  1.005 -99.9 -99.99 -9.99
2018/08/14 00:48 EDT    7.29   7.68    8  228    9  74.5  82.4 1012.6 10.2  1.005 -99.9 -99.99 -9.99
2018/08/14 00:54 EDT    7.27   7.65    8  234    9  74.3  82.2 1012.6 10.3  1.005 -99.9 -99.99 -9.99
2018/08/14 01:00 EDT    7.23   7.64    9  232   11  74.1  82.2 1012.6 10.5  1.005 -99.9 -99.99 -9.99
2018/08/14 01:06 EDT    7.19   7.59   10  227   11  74.3  82.2 1012.5 10.6  1.005 -99.9 -99.99 -9.99
2018/08/14 01:12 EDT    7.14   7.48   10  225   11  74.1  82.2 1012.4 10.7  1.005 -99.9 -99.99 -9.99
2018/08/14 01:18 EDT    7.08   7.46   10  225   12  74.3  82.2 1012.5 10.7  1.005 -99.9 -99.99 -9.99
2018/08/14 01:24 EDT    7.01   7.41   10  217   11  73.9  82.2 1012.5 10.8  1.005 -99.9 -99.99 -9.99
2018/08/14 01:30 EDT    6.93   7.29   10  225   12  73.8  82.2 1012.5 10.9  1.005 -99.9 -99.99 -9.99
2018/08/14 01:36 EDT    6.85   7.22   10  224   12  73.6  82.2 1012.5 11.0  1.005 -99.9 -99.99 -9.99
2018/08/14 01:42 EDT    6.76   7.06   11  224   11  73.6  82.0 1012.5 11.0  1.005 -99.9 -99.99 -9.99
2018/08/14 01:48 EDT    6.66   6.98   10  225   12  73.4  82.2 1012.4 11.0  1.005 -99.9 -99.99 -9.99
2018/08/14 01:54 EDT    6.55   6.86   11  230   12  73.4  82.2 1012.3 11.0  1.005 -99.9 -99.99 -9.99
2018/08/14 02:00 EDT    6.44   6.73   11  232   12  73.4  82.2 1012.2 11.1  1.005 -99.9 -99.99 -9.99
2018/08/14 02:06 EDT    6.32   6.62   10  230   11  73.2  82.2 1012.1 11.1  1.005 -99.9 -99.99 -9.99
2018/08/14 02:12 EDT    6.20   6.49   10  232   11  73.0  82.2 1012.0 11.2  1.006 -99.9 -99.99 -9.99
2018/08/14 02:18 EDT    6.07   6.36   11  231   12  73.2  82.2 1012.1 11.2  1.006 -99.9 -99.99 -9.99
2018/08/14 02:24 EDT    5.94   6.23   10  235   12  73.0  82.2 1012.0 11.2  1.006 -99.9 -99.99 -9.99
2018/08/14 02:30 EDT    5.80   6.07   11  245   12  72.5  82.0 1012.0 10.9  1.005 -99.9 -99.99 -9.99
2018/08/14 02:36 EDT    5.66   5.91    9  233   11  72.5  82.0 1011.9 10.7  1.005 -99.9 -99.99 -9.99
2018/08/14 02:42 EDT    5.52   5.74    8  242   10  72.9  82.0 1011.9 10.5  1.005 -99.9 -99.99 -9.99
2018/08/14 02:48 EDT    5.37   5.60   10  242   11  72.5  82.0 1012.0 10.3  1.005 -99.9 -99.99 -9.99
2018/08/14 02:54 EDT    5.22   5.42    9  253   11  72.7  82.2 1012.0 10.1  1.005 -99.9 -99.99 -9.99
2018/08/14 03:00 EDT    5.07   5.27   10  258   12  72.9  82.2 1012.0 10.0  1.005 -99.9 -99.99 -9.99
2018/08/14 03:06 EDT    4.92   5.11   10  250   11  72.7  82.2 1012.0 10.0  1.005 -99.9 -99.99 -9.99
2018/08/14 03:12 EDT    4.76   4.93   10  262   12  72.3  82.2 1011.8 10.0  1.005 -99.9 -99.99 -9.99
2018/08/14 03:18 EDT    4.60   4.78   10  254   11  72.5  82.2 1011.8  9.9  1.005 -99.9 -99.99 -9.99
2018/08/14 03:24 EDT    4.45   4.62   11  243   12  72.1  82.2 1011.8  9.9  1.005 -99.9 -99.99 -9.99
2018/08/14 03:30 EDT    4.29   4.46   11  242   12  72.3  82.2 1011.8  9.8  1.005 -99.9 -99.99 -9.99
2018/08/14 03:36 EDT    4.13   4.30   10  241   11  72.7  82.2 1011.7  9.8  1.004 -99.9 -99.99 -9.99
2018/08/14 03:42 EDT    3.97   4.14   10  238   13  72.7  82.2 1011.6  9.8  1.004 -99.9 -99.99 -9.99
2018/08/14 03:48 EDT    3.81   3.98    8  244   10  72.9  82.2 1011.6  9.5  1.004 -99.9 -99.99 -9.99
2018/08/14 03:54 EDT    3.65   3.82    8  248   10  72.5  82.4 1011.5  9.4  1.004 -99.9 -99.99 -9.99
2018/08/14 04:00 EDT    3.49   3.66    9  247   10  72.7  82.4 1011.6  9.5  1.004 -99.9 -99.99 -9.99
2018/08/14 04:06 EDT    3.33   3.48   10  246   11  72.7  82.4 1011.5  9.5  1.004 -99.9 -99.99 -9.99
2018/08/14 04:12 EDT    3.17   3.32    9  245   11  72.9  82.4 1011.5  9.6  1.004 -99.9 -99.99 -9.99
2018/08/14 04:18 EDT    3.01   3.16   10  241   12  72.7  82.2 1011.6  9.8  1.004 -99.9 -99.99 -9.99
2018/08/14 04:24 EDT    2.86   3.01   10  234   12  72.5  82.2 1011.6  9.8  1.004 -99.9 -99.99 -9.99
2018/08/14 04:30 EDT    2.70   2.86   10  238   11  72.1  82.2 1011.6  9.8  1.005 -99.9 -99.99 -9.99
2018/08/14 04:36 EDT    2.54   2.70   10  235   12  72.0  82.2 1011.6  9.9  1.005 -99.9 -99.99 -9.99
2018/08/14 04:42 EDT    2.39   2.58   11  238   12  71.8  82.2 1011.6  9.9  1.005 -99.9 -99.99 -9.99
2018/08/14 04:48 EDT    2.23   2.43   10  239   12  72.0  82.2 1011.7  9.8  1.005 -99.9 -99.99 -9.99
2018/08/14 04:54 EDT    2.08   2.29    9  239   12  71.8  82.4 1011.7  9.7  1.004 -99.9 -99.99 -9.99
2018/08/14 05:00 EDT    1.93   2.17    9  242   11  71.8  82.4 1011.6  9.6  1.004 -99.9 -99.99 -9.99
2018/08/14 05:06 EDT    1.77   2.01    8  251   10  72.0  82.4 1011.6  9.6  1.004 -99.9 -99.99 -9.99
2018/08/14 05:12 EDT    1.62   1.89    7  247    9  72.0  82.4 1011.7  9.6  1.004 -99.9 -99.99 -9.99
2018/08/14 05:18 EDT    1.48   1.76    8  244   10  72.3  82.4 1011.6  9.5  1.004 -99.9 -99.99 -9.99
2018/08/14 05:24 EDT    1.33   1.62    9  233   10  72.5  82.4 1011.7  9.5  1.004 -99.9 -99.99 -9.99
2018/08/14 05:30 EDT    1.18   1.50    8  234   10  72.3  82.4 1011.7  9.4  1.004 -99.9 -99.99 -9.99
2018/08/14 05:36 EDT    1.04   1.39    9  227   10  72.1  82.4 1011.8  9.3  1.004 -99.9 -99.99 -9.99
2018/08/14 05:42 EDT    0.90   1.24    8  234    9  72.0  82.6 1011.8  9.2  1.004 -99.9 -99.99 -9.99
2018/08/14 05:48 EDT    0.77   1.15    9  235   10  71.8  82.6 1011.9  9.1  1.004 -99.9 -99.99 -9.99
2018/08/14 05:54 EDT    0.64   1.04    9  237   10  71.6  82.6 1012.0  9.0  1.004 -99.9 -99.99 -9.99
2018/08/14 06:00 EDT    0.51   0.93   10  230   11  71.6  82.6 1012.0  9.0  1.004 -99.9 -99.99 -9.99
2018/08/14 06:06 EDT    0.39   0.83   10  230   11  71.8  82.6 1012.1  8.9  1.004 -99.9 -99.99 -9.99
2018/08/14 06:12 EDT    0.28   0.71   11  235   12  71.4  82.6 1012.3  8.8  1.004 -99.9 -99.99 -9.99
2018/08/14 06:18 EDT    0.17   0.64   10  233   13  72.0  82.6 1012.2  8.4  1.003 -99.9 -99.99 -9.99
2018/08/14 06:24 EDT    0.07   0.55   10  238   11  71.4  82.6 1012.2  8.3  1.003 -99.9 -99.99 -9.99
2018/08/14 06:30 EDT   -0.03   0.44   11  236   12  71.2  82.6 1012.3  8.2  1.003 -99.9 -99.99 -9.99
2018/08/14 06:36 EDT   -0.11   0.42    9  234   12  71.6  82.6 1012.3  8.2  1.003 -99.9 -99.99 -9.99
2018/08/14 06:42 EDT   -0.19   0.28   10  243   12  71.2  82.6 1012.3  8.2  1.003 -99.9 -99.99 -9.99
2018/08/14 06:48 EDT   -0.25   0.26   10  241   12  71.2  82.6 1012.4  8.1  1.003 -99.9 -99.99 -9.99
2018/08/14 06:54 EDT   -0.31   0.16   11  242   12  71.1  82.6 1012.5  8.0  1.003 -99.9 -99.99 -9.99
2018/08/14 07:00 EDT   -0.35   0.13   11  246   13  71.1  82.6 1012.6  7.9  1.003 -99.9 -99.99 -9.99
2018/08/14 07:06 EDT   -0.38   0.10   11  242   13  71.4  82.8 1012.6  7.8  1.003 -99.9 -99.99 -9.99
2018/08/14 07:12 EDT   -0.41   0.05   12  240   13  71.4  82.8 1012.6  7.8  1.003 -99.9 -99.99 -9.99
2018/08/14 07:18 EDT   -0.41   0.01   10  240   13  71.4  82.8 1012.7  7.6  1.003 -99.9 -99.99 -9.99
2018/08/14 07:24 EDT   -0.41  -0.01   10  241   13  71.6  82.8 1012.7  7.4  1.003 -99.9 -99.99 -9.99
2018/08/14 07:30 EDT   -0.40  -0.01    9  240   11  71.8  82.8 1012.6  7.4  1.003 -99.9 -99.99 -9.99
2018/08/14 07:36 EDT   -0.37  -0.00    9  246   11  71.2  82.8 1012.6  7.2  1.002 -99.9 -99.99 -9.99
2018/08/14 07:42 EDT   -0.33   0.01   10  238   12  71.2  82.8 1012.8  7.1  1.002 -99.9 -99.99 -9.99
2018/08/14 07:48 EDT   -0.27   0.02   10  251   13  71.2  82.8 1012.8  7.1  1.002 -99.9 -99.99 -9.99
2018/08/14 07:54 EDT   -0.21   0.08    8  252   11  71.2  82.8 1012.8  7.1  1.002 -99.9 -99.99 -9.99
2018/08/14 08:00 EDT   -0.13   0.16   10  241   11  71.2  82.8 1012.8  7.1  1.002 -99.9 -99.99 -9.99
2018/08/14 08:06 EDT   -0.04   0.27   10  243   13  71.4  82.8 1012.7  7.1  1.002 -99.9 -99.99 -9.99
2018/08/14 08:12 EDT    0.06   0.36   10  249   13  71.4  82.8 1012.8  6.8  1.002 -99.9 -99.99 -9.99
2018/08/14 08:18 EDT    0.17   0.49   11  250   13  71.2  82.8 1012.8  6.9  1.002 -99.9 -99.99 -9.99
2018/08/14 08:24 EDT    0.29   0.65   10  255   13  71.4  82.9 1012.7  6.6  1.002 -99.9 -99.99 -9.99
2018/08/14 08:30 EDT    0.42   0.77   11  259   13  71.4  82.9 1012.8  6.4  1.002 -99.9 -99.99 -9.99
2018/08/14 08:36 EDT    0.55   0.96   10  245   11  71.4  82.9 1012.7  6.4  1.002 -99.9 -99.99 -9.99
2018/08/14 08:42 EDT    0.70   1.12    9  254   12  71.8  82.9 1012.7  6.4  1.002 -99.9 -99.99 -9.99
2018/08/14 08:48 EDT    0.85   1.31   10  259   12  71.8  82.9 1012.7  6.3  1.002 -99.9 -99.99 -9.99
2018/08/14 08:54 EDT    1.01   1.51   10  265   11  71.8  82.9 1012.7  6.2  1.002 -99.9 -99.99 -9.99
2018/08/14 09:00 EDT    1.18   1.69   11  270   12  71.8  82.9 1012.7  6.0  1.002 -99.9 -99.99 -9.99
2018/08/14 09:06 EDT    1.34   1.88    8  268   11  72.3  82.8 1012.8  6.1  1.002 -99.9 -99.99 -9.99
2018/08/14 09:12 EDT    1.52   2.07    8  270    9  72.5  82.9 1012.8  6.0  1.002 -99.9 -99.99 -9.99
2018/08/14 09:18 EDT    1.70   2.25    7  270   10  72.9  82.9 1012.8  6.0  1.002 -99.9 -99.99 -9.99
2018/08/14 09:24 EDT    1.88   2.43    6  252   10  72.9  82.8 1012.8  5.9  1.001 -99.9 -99.99 -9.99
2018/08/14 09:30 EDT    2.06 -99.99 -999 -999 -999 -99.9 -99.9 -999.9 -9.9 -9.999 -99.9 -99.99 -9.99
2018/08/14 09:36 EDT    2.24 -99.99 -999 -999 -999 -99.9 -99.9 -999.9 -9.9 -9.999 -99.9 -99.99 -9.99
2018/08/14 09:42 EDT    2.43 -99.99 -999 -999 -999 -99.9 -99.9 -999.9 -9.9 -9.999 -99.9 -99.99 -9.99
2018/08/14 09:48 EDT    2.62 -99.99 -999 -999 -999 -99.9 -99.9 -999.9 -9.9 -9.999 -99.9 -99.99 -9.99
2018/08/14 09:54 EDT    2.80 -99.99 -999 -999 -999 -99.9 -99.9 -999.9 -9.9 -9.999 -99.9 -99.99 -9.99
2018/08/14 10:00 EDT    2.99 -99.99 -999 -999 -999 -99.9 -99.9 -999.9 -9.9 -9.999 -99.9 -99.99 -9.99
2018/08/14 10:06 EDT    3.18 -99.99 -999 -999 -999 -99.9 -99.9 -999.9 -9.9 -9.999 -99.9 -99.99 -9.99
2018/08/14 10:12 EDT    3.36 -99.99 -999 -999 -999 -99.9 -99.9 -999.9 -9.9 -9.999 -99.9 -99.99 -9.99
2018/08/14 10:18 EDT    3.55 -99.99 -999 -999 -999 -99.9 -99.9 -999.9 -9.9 -9.999 -99.9 -99.99 -9.99
2018/08/14 10:24 EDT    3.73 -99.99 -999 -999 -999 -99.9 -99.9 -999.9 -9.9 -9.999 -99.9 -99.99 -9.99
2018/08/14 10:30 EDT    3.91 -99.99 -999 -999 -999 -99.9 -99.9 -999.9 -9.9 -9.999 -99.9 -99.99 -9.99
2018/08/14 10:36 EDT    4.09 -99.99 -999 -999 -999 -99.9 -99.9 -999.9 -9.9 -9.999 -99.9 -99.99 -9.99
2018/08/14 10:42 EDT    4.27 -99.99 -999 -999 -999 -99.9 -99.9 -999.9 -9.9 -9.999 -99.9 -99.99 -9.99
2018/08/14 10:48 EDT    4.44 -99.99 -999 -999 -999 -99.9 -99.9 -999.9 -9.9 -9.999 -99.9 -99.99 -9.99
2018/08/14 10:54 EDT    4.61 -99.99 -999 -999 -999 -99.9 -99.9 -999.9 -9.9 -9.999 -99.9 -99.99 -9.99
2018/08/14 11:00 EDT    4.78 -99.99 -999 -999 -999 -99.9 -99.9 -999.9 -9.9 -9.999 -99.9 -99.99 -9.99
2018/08/14 11:06 EDT    4.94 -99.99 -999 -999 -999 -99.9 -99.9 -999.9 -9.9 -9.999 -99.9 -99.99 -9.99
2018/08/14 11:12 EDT    5.10 -99.99 -999 -999 -999 -99.9 -99.9 -999.9 -9.9 -9.999 -99.9 -99.99 -9.99
2018/08/14 11:18 EDT    5.25 -99.99 -999 -999 -999 -99.9 -99.9 -999.9 -9.9 -9.999 -99.9 -99.99 -9.99
2018/08/14 11:24 EDT    5.40 -99.99 -999 -999 -999 -99.9 -99.9 -999.9 -9.9 -9.999 -99.9 -99.99 -9.99
2018/08/14 11:30 EDT    5.54 -99.99 -999 -999 -999 -99.9 -99.9 -999.9 -9.9 -9.999 -99.9 -99.99 -9.99
2018/08/14 11:36 EDT    5.67 -99.99 -999 -999 -999 -99.9 -99.9 -999.9 -9.9 -9.999 -99.9 -99.99 -9.99
2018/08/14 11:42 EDT    5.80 -99.99 -999 -999 -999 -99.9 -99.9 -999.9 -9.9 -9.999 -99.9 -99.99 -9.99
2018/08/14 11:48 EDT    5.93 -99.99 -999 -999 -999 -99.9 -99.9 -999.9 -9.9 -9.999 -99.9 -99.99 -9.99
2018/08/14 11:54 EDT    6.04 -99.99 -999 -999 -999 -99.9 -99.9 -999.9 -9.9 -9.999 -99.9 -99.99 -9.99
2018/08/14 12:00 EDT    6.15 -99.99 -999 -999 -999 -99.9 -99.9 -999.9 -9.9 -9.999 -99.9 -99.99 -9.99
2018/08/14 12:06 EDT    6.25 -99.99 -999 -999 -999 -99.9 -99.9 -999.9 -9.9 -9.999 -99.9 -99.99 -9.99
2018/08/14 12:12 EDT    6.34 -99.99 -999 -999 -999 -99.9 -99.9 -999.9 -9.9 -9.999 -99.9 -99.99 -9.99
2018/08/14 12:18 EDT    6.42 -99.99 -999 -999 -999 -99.9 -99.9 -999.9 -9.9 -9.999 -99.9 -99.99 -9.99
2018/08/14 12:24 EDT    6.49 -99.99 -999 -999 -999 -99.9 -99.9 -999.9 -9.9 -9.999 -99.9 -99.99 -9.99
2018/08/14 12:30 EDT    6.56 -99.99 -999 -999 -999 -99.9 -99.9 -999.9 -9.9 -9.999 -99.9 -99.99 -9.99
2018/08/14 12:36 EDT    6.61 -99.99 -999 -999 -999 -99.9 -99.9 -999.9 -9.9 -9.999 -99.9 -99.99 -9.99
2018/08/14 12:42 EDT    6.66 -99.99 -999 -999 -999 -99.9 -99.9 -999.9 -9.9 -9.999 -99.9 -99.99 -9.99
2018/08/14 12:48 EDT    6.70 -99.99 -999 -999 -999 -99.9 -99.9 -999.9 -9.9 -9.999 -99.9 -99.99 -9.99
2018/08/14 12:54 EDT    6.72 -99.99 -999 -999 -999 -99.9 -99.9 -999.9 -9.9 -9.999 -99.9 -99.99 -9.99
2018/08/14 13:00 EDT    6.74 -99.99 -999 -999 -999 -99.9 -99.9 -999.9 -9.9 -9.999 -99.9 -99.99 -9.99
2018/08/14 13:06 EDT    6.75 -99.99 -999 -999 -999 -99.9 -99.9 -999.9 -9.9 -9.999 -99.9 -99.99 -9.99
2018/08/14 13:12 EDT    6.74 -99.99 -999 -999 -999 -99.9 -99.9 -999.9 -9.9 -9.999 -99.9 -99.99 -9.99
2018/08/14 13:18 EDT    6.73 -99.99 -999 -999 -999 -99.9 -99.9 -999.9 -9.9 -9.999 -99.9 -99.99 -9.99
2018/08/14 13:24 EDT    6.71 -99.99 -999 -999 -999 -99.9 -99.9 -999.9 -9.9 -9.999 -99.9 -99.99 -9.99
2018/08/14 13:30 EDT    6.68 -99.99 -999 -999 -999 -99.9 -99.9 -999.9 -9.9 -9.999 -99.9 -99.99 -9.99
2018/08/14 13:36 EDT    6.64 -99.99 -999 -999 -999 -99.9 -99.9 -999.9 -9.9 -9.999 -99.9 -99.99 -9.99
2018/08/14 13:42 EDT    6.59 -99.99 -999 -999 -999 -99.9 -99.9 -999.9 -9.9 -9.999 -99.9 -99.99 -9.99
2018/08/14 13:48 EDT    6.53 -99.99 -999 -999 -999 -99.9 -99.9 -999.9 -9.9 -9.999 -99.9 -99.99 -9.99
2018/08/14 13:54 EDT    6.46 -99.99 -999 -999 -999 -99.9 -99.9 -999.9 -9.9 -9.999 -99.9 -99.99 -9.99
2018/08/14 14:00 EDT    6.39 -99.99 -999 -999 -999 -99.9 -99.9 -999.9 -9.9 -9.999 -99.9 -99.99 -9.99
2018/08/14 14:06 EDT    6.31 -99.99 -999 -999 -999 -99.9 -99.9 -999.9 -9.9 -9.999 -99.9 -99.99 -9.99
2018/08/14 14:12 EDT    6.22 -99.99 -999 -999 -999 -99.9 -99.9 -999.9 -9.9 -9.999 -99.9 -99.99 -9.99
2018/08/14 14:18 EDT    6.12 -99.99 -999 -999 -999 -99.9 -99.9 -999.9 -9.9 -9.999 -99.9 -99.99 -9.99
2018/08/14 14:24 EDT    6.02 -99.99 -999 -999 -999 -99.9 -99.9 -999.9 -9.9 -9.999 -99.9 -99.99 -9.99
2018/08/14 14:30 EDT    5.91 -99.99 -999 -999 -999 -99.9 -99.9 -999.9 -9.9 -9.999 -99.9 -99.99 -9.99
2018/08/14 14:36 EDT    5.80 -99.99 -999 -999 -999 -99.9 -99.9 -999.9 -9.9 -9.999 -99.9 -99.99 -9.99
2018/08/14 14:42 EDT    5.68 -99.99 -999 -999 -999 -99.9 -99.9 -999.9 -9.9 -9.999 -99.9 -99.99 -9.99
2018/08/14 14:48 EDT    5.56 -99.99 -999 -999 -999 -99.9 -99.9 -999.9 -9.9 -9.999 -99.9 -99.99 -9.99
2018/08/14 14:54 EDT    5.43 -99.99 -999 -999 -999 -99.9 -99.9 -999.9 -9.9 -9.999 -99.9 -99.99 -9.99
2018/08/14 15:00 EDT    5.30 -99.99 -999 -999 -999 -99.9 -99.9 -999.9 -9.9 -9.999 -99.9 -99.99 -9.99
2018/08/14 15:06 EDT    5.16 -99.99 -999 -999 -999 -99.9 -99.9 -999.9 -9.9 -9.999 -99.9 -99.99 -9.99
2018/08/14 15:12 EDT    5.02 -99.99 -999 -999 -999 -99.9 -99.9 -999.9 -9.9 -9.999 -99.9 -99.99 -9.99
2018/08/14 15:18 EDT    4.88 -99.99 -999 -999 -999 -99.9 -99.9 -999.9 -9.9 -9.999 -99.9 -99.99 -9.99
2018/08/14 15:24 EDT    4.74 -99.99 -999 -999 -999 -99.9 -99.9 -999.9 -9.9 -9.999 -99.9 -99.99 -9.99
2018/08/14 15:30 EDT    4.59 -99.99 -999 -999 -999 -99.9 -99.9 -999.9 -9.9 -9.999 -99.9 -99.99 -9.99

Revised: 10/15/2013
NOAA / National Ocean Service
Web site owner: Center for Operational Oceanographic Products and Services